Time;durP1;ratioP1;P1;durP2;ratioP2;P2;SDS_P1;SDS_P2;PMS_P1;PMS_P2;Temp;Humidity;BMP_temperature;BMP_pressure;BME280_temperature;BME280_humidity;BME280_pressure;Samples;Min_cycle;Max_cycle;Signal;HPM_P1;HPM_P2
2022/11/04 00:00:15;;;;;;;3.40;3.10;;;;;;;9.83;100.00;99977.94;5034281;28;20059;-72
2022/11/04 00:02:40;;;;;;;5.50;3.20;;;;;;;9.84;100.00;99980.41;5031413;28;20070;-71
2022/11/04 00:05:06;;;;;;;5.13;4.03;;;;;;;9.93;100.00;99983.53;5033954;28;20384;-73
2022/11/04 00:10:15;;;;;;;7.10;5.05;;;;;;;10.00;100.00;99989.63;5033781;28;20024;-72
2022/11/04 00:12:41;;;;;;;10.80;8.57;;;;;;;10.07;100.00;99984.06;5033466;28;20021;-71
2022/11/04 00:18:07;;;;;;;9.27;8.40;;;;;;;10.10;100.00;99987.13;5011535;28;20030;-70
2022/11/04 00:28:45;;;;;;;10.93;7.60;;;;;;;9.96;100.00;100001.16;5033557;28;20118;-71
2022/11/04 00:33:56;;;;;;;10.20;7.70;;;;;;;9.86;100.00;100004.50;5033412;28;20092;-72
2022/11/04 00:36:23;;;;;;;7.68;6.93;;;;;;;9.85;100.00;100008.25;5033218;28;20044;-71
2022/11/04 00:38:48;;;;;;;9.35;7.05;;;;;;;9.78;100.00;100005.69;5033297;28;20021;-68
2022/11/04 00:41:26;;;;;;;7.88;6.97;;;;;;;9.74;100.00;100008.06;5033142;28;20032;-73
2022/11/04 00:44:02;;;;;;;8.65;7.43;;;;;;;9.74;100.00;100012.66;5033348;28;20112;-72
2022/11/04 00:46:30;;;;;;;8.95;7.47;;;;;;;9.68;100.00;100014.44;5032987;28;20024;-71
2022/11/04 00:48:55;;;;;;;9.65;6.97;;;;;;;9.66;100.00;100021.97;5033384;28;20052;-71
2022/11/04 00:51:21;;;;;;;9.45;7.32;;;;;;;9.65;100.00;100019.50;5033090;28;20029;-69
2022/11/04 00:53:46;;;;;;;8.52;7.70;;;;;;;9.64;100.00;100026.75;5032755;28;20368;-68
2022/11/04 00:56:12;;;;;;;11.63;7.38;;;;;;;9.62;100.00;100028.03;5032924;28;20041;-72
2022/11/04 00:58:37;;;;;;;9.23;7.35;;;;;;;9.59;100.00;100037.47;5032760;28;20045;-72
2022/11/04 01:01:07;;;;;;;8.10;7.10;;;;;;;9.57;100.00;100045.81;5030437;28;20021;-69
2022/11/04 01:03:33;;;;;;;9.32;7.00;;;;;;;9.51;100.00;100037.81;5030817;28;20025;-70
2022/11/04 01:05:58;;;;;;;9.73;7.13;;;;;;;9.49;100.00;100040.75;5032822;28;20488;-68
2022/11/04 01:08:23;;;;;;;11.93;7.13;;;;;;;9.48;100.00;100038.31;5032737;28;20025;-73
2022/11/04 01:10:48;;;;;;;10.80;7.25;;;;;;;9.45;100.00;100039.63;5032670;28;20025;-69
2022/11/04 01:13:14;;;;;;;10.85;7.45;;;;;;;9.45;100.00;100041.47;5031315;28;20453;-68
2022/11/04 01:15:39;;;;;;;14.50;8.23;;;;;;;9.39;100.00;100046.78;5032469;28;20018;-71
2022/11/04 01:18:05;;;;;;;11.27;8.52;;;;;;;9.39;100.00;100056.75;5032622;28;20049;-71
2022/11/04 01:20:31;;;;;;;15.07;8.52;;;;;;;9.35;100.00;100055.59;5032476;28;20025;-72
2022/11/04 01:22:56;;;;;;;11.18;8.27;;;;;;;9.33;100.00;100061.22;5032594;28;20092;-70
2022/11/04 01:25:22;;;;;;;15.52;9.10;;;;;;;9.38;100.00;100065.91;5032534;28;20100;-70
2022/11/04 01:27:47;;;;;;;14.50;8.88;;;;;;;9.38;100.00;100061.34;5031023;28;20453;-71
2022/11/04 01:30:12;;;;;;;11.25;8.55;;;;;;;9.33;100.00;100057.69;5032425;28;20025;-70
2022/11/04 01:32:38;;;;;;;13.98;8.88;;;;;;;9.35;100.00;100061.81;5032214;28;20029;-71
2022/11/04 01:35:04;;;;;;;15.10;8.68;;;;;;;9.35;100.00;100052.91;5032702;28;20025;-68
2022/11/04 01:37:29;;;;;;;14.55;8.25;;;;;;;9.32;100.00;100051.47;5032334;28;20061;-69
2022/11/04 01:39:54;;;;;;;12.07;7.47;;;;;;;9.34;100.00;100057.44;5032719;28;20048;-71
2022/11/04 01:42:21;;;;;;;12.65;7.63;;;;;;;9.32;100.00;100056.06;5032898;28;20108;-70
2022/11/04 01:44:49;;;;;;;11.63;7.43;;;;;;;9.26;100.00;100048.91;5032448;28;20034;-70
2022/11/04 01:47:26;;;;;;;15.00;8.18;;;;;;;9.23;100.00;100050.19;5032577;28;20025;-68
2022/11/04 01:50:21;;;;;;;11.00;7.53;;;;;;;9.20;100.00;100061.47;5032533;28;20021;-68
2022/11/04 01:52:56;;;;;;;12.30;6.75;;;;;;;9.16;100.00;100054.88;5030537;28;20042;-71
2022/11/04 01:55:26;;;;;;;10.98;7.07;;;;;;;9.17;100.00;100054.66;5032262;28;20049;-69
2022/11/04 01:57:55;;;;;;;10.88;6.53;;;;;;;9.12;100.00;100051.00;5032017;28;20024;-70
2022/11/04 02:00:20;;;;;;;11.73;6.70;;;;;;;9.09;100.00;100051.47;5031175;28;20112;-70
2022/11/04 02:03:07;;;;;;;15.45;5.93;;;;;;;9.09;100.00;100056.88;5031198;28;20132;-69
2022/11/04 02:05:33;;;;;;;10.88;5.97;;;;;;;9.03;100.00;100056.78;5031885;28;20017;-69
2022/11/04 02:08:02;;;;;;;11.18;5.45;;;;;;;9.04;100.00;100057.59;5032391;28;20032;-70
2022/11/04 02:10:30;;;;;;;11.48;5.72;;;;;;;9.00;100.00;100056.44;5032418;28;20445;-71
2022/11/04 02:12:58;;;;;;;9.90;5.40;;;;;;;8.98;100.00;100062.06;5030893;28;20108;-68
2022/11/04 02:15:41;;;;;;;11.55;5.75;;;;;;;8.97;100.00;100059.59;5035336;28;20076;-70
2022/11/04 02:18:12;;;;;;;9.20;5.43;;;;;;;8.94;100.00;100055.47;5036198;28;20025;-69
2022/11/04 02:21:08;;;;;;;11.95;5.65;;;;;;;8.86;100.00;100055.81;5035950;28;20112;-70
2022/11/04 02:24:01;;;;;;;9.23;4.88;;;;;;;8.84;100.00;100060.63;5035961;28;20030;-72
2022/11/04 02:27:00;;;;;;;9.70;4.70;;;;;;;8.83;100.00;100067.06;5035828;28;20018;-69
2022/11/04 02:29:26;;;;;;;9.93;4.75;;;;;;;8.78;100.00;100069.66;5035966;28;20052;-71
2022/11/04 02:32:07;;;;;;;7.93;4.55;;;;;;;8.74;100.00;100068.47;5035725;28;20449;-70
2022/11/04 02:34:44;;;;;;;8.35;4.35;;;;;;;8.73;100.00;100073.03;5035447;28;20028;-70
2022/11/04 02:37:34;;;;;;;8.45;4.25;;;;;;;8.74;100.00;100069.31;5035733;28;20032;-70
2022/11/04 02:40:23;;;;;;;8.05;4.03;;;;;;;8.77;100.00;100076.94;5035832;28;20433;-68
2022/11/04 02:43:19;;;;;;;11.07;4.13;;;;;;;8.73;100.00;100074.94;5035238;28;20453;-70
2022/11/04 02:45:51;;;;;;;9.25;3.78;;;;;;;8.66;100.00;100081.22;5035484;28;20060;-71
2022/11/04 02:48:46;;;;;;;9.85;3.88;;;;;;;8.65;100.00;100078.75;5035380;28;20420;-71
2022/11/04 02:51:21;;;;;;;8.93;3.35;;;;;;;8.62;100.00;100079.22;5035283;28;20034;-72
2022/11/04 02:53:55;;;;;;;9.63;3.70;;;;;;;8.59;100.00;100075.13;5035258;28;20030;-68
2022/11/04 02:56:23;;;;;;;9.95;3.75;;;;;;;8.59;100.00;100082.38;5034158;28;20040;-68
2022/11/04 02:58:56;;;;;;;8.13;3.50;;;;;;;8.61;100.00;100083.00;5033609;28;20112;-71
2022/11/04 03:01:24;;;;;;;9.52;3.47;;;;;;;8.57;100.00;100082.63;5031632;28;20030;-70
2022/11/04 03:03:59;;;;;;;9.02;3.10;;;;;;;8.56;100.00;100072.91;5034910;28;20033;-72
2022/11/04 03:06:26;;;;;;;10.13;3.50;;;;;;;8.54;100.00;100077.69;5035258;28;20032;-71
2022/11/04 03:08:53;;;;;;;9.25;3.45;;;;;;;8.53;100.00;100084.16;5035040;28;20040;-70
2022/11/04 03:11:23;;;;;;;8.52;3.03;;;;;;;8.52;100.00;100082.50;5035239;28;20516;-69
2022/11/04 03:13:51;;;;;;;14.10;3.28;;;;;;;8.52;100.00;100085.19;5034914;28;20021;-67
2022/11/04 03:16:20;;;;;;;7.47;3.15;;;;;;;8.48;100.00;100086.69;5033801;28;20088;-71
2022/11/04 03:19:05;;;;;;;8.38;2.97;;;;;;;8.53;100.00;100092.25;5035146;28;20025;-69
2022/11/04 03:21:34;;;;;;;10.05;3.00;;;;;;;8.48;100.00;100086.69;5034838;28;20108;-70
2022/11/04 03:24:01;;;;;;;6.40;2.88;;;;;;;8.46;100.00;100086.13;5035024;28;20159;-68
2022/11/04 03:26:28;;;;;;;8.30;2.92;;;;;;;8.42;100.00;100092.97;5033970;28;20040;-70
2022/11/04 03:29:29;;;;;;;8.40;2.67;;;;;;;8.42;100.00;100087.59;5034630;28;20114;-68
2022/11/04 03:32:06;;;;;;;8.25;2.78;;;;;;;8.46;100.00;100086.94;5033971;28;20041;-71
2022/11/04 03:34:32;;;;;;;7.18;2.60;;;;;;;8.43;100.00;100091.94;5034457;28;20453;-70
2022/11/04 03:36:57;;;;;;;8.50;2.83;;;;;;;8.43;100.00;100097.31;5034222;28;20041;-70
2022/11/04 03:39:23;;;;;;;11.50;3.15;;;;;;;8.42;100.00;100091.09;5033259;28;20126;-69
2022/11/04 03:41:54;;;;;;;8.80;3.00;;;;;;;8.40;100.00;100100.47;5034473;28;20029;-70
2022/11/04 03:44:19;;;;;;;6.53;2.40;;;;;;;8.40;100.00;100092.41;5034749;28;20033;-69
2022/11/04 03:46:44;;;;;;;6.53;2.83;;;;;;;8.41;100.00;100097.56;5034131;28;20132;-70
2022/11/04 03:49:11;;;;;;;6.78;2.72;;;;;;;8.40;100.00;100100.47;5034579;28;20504;-71
2022/11/04 03:51:36;;;;;;;9.00;2.78;;;;;;;8.37;100.00;100088.28;5034244;28;20021;-69
2022/11/04 03:54:02;;;;;;;8.40;2.78;;;;;;;8.34;100.00;100092.25;5032978;28;20029;-71
2022/11/04 03:56:33;;;;;;;7.45;2.97;;;;;;;8.37;100.00;100098.25;5033112;28;20385;-71
2022/11/04 03:59:17;;;;;;;7.68;2.67;;;;;;;8.38;100.00;100094.47;5033938;28;20068;-71
2022/11/04 04:01:54;;;;;;;9.70;2.47;;;;;;;8.39;100.00;100104.22;5030007;28;20030;-71
2022/11/04 04:04:29;;;;;;;9.18;2.45;;;;;;;8.41;100.00;100097.56;5032704;28;20471;-70
2022/11/04 04:07:04;;;;;;;10.32;2.47;;;;;;;8.37;100.00;100093.66;5033720;28;20024;-72
2022/11/04 04:09:37;;;;;;;10.20;2.80;;;;;;;8.41;100.00;100088.63;5034427;28;20456;-72
2022/11/04 04:12:15;;;;;;;11.00;2.58;;;;;;;8.38;100.00;100089.09;5032768;28;20522;-69
2022/11/04 04:14:54;;;;;;;12.50;2.70;;;;;;;8.41;100.00;100100.25;5033868;28;20404;-70
2022/11/04 04:17:45;;;;;;;8.27;2.90;;;;;;;8.42;100.00;100101.06;5033978;28;20025;-71
2022/11/04 04:20:18;;;;;;;7.18;2.67;;;;;;;8.34;100.00;100099.53;5033972;28;20064;-70
2022/11/04 04:22:58;;;;;;;11.05;2.67;;;;;;;8.36;100.00;100110.06;5033678;28;20079;-70
2022/11/04 04:28:14;;;;;;;6.97;2.70;;;;;;;8.30;100.00;100114.50;5033902;28;20056;-70
2022/11/04 04:30:42;;;;;;;8.45;2.83;;;;;;;8.26;100.00;100127.63;5033473;28;20032;-70
2022/11/04 04:33:14;;;;;;;8.98;2.70;;;;;;;8.30;100.00;100122.59;5033659;28;20078;-69
2022/11/04 04:35:43;;;;;;;10.55;3.05;;;;;;;8.16;100.00;100124.63;5033454;28;20449;-71
2022/11/04 04:47:19;;;;;;;7.65;2.92;;;;;;;8.26;100.00;100132.19;5033168;28;20084;-66
2022/11/04 04:49:55;;;;;;;13.93;2.70;;;;;;;8.23;100.00;100135.31;5031576;28;20075;-71
2022/11/04 04:52:23;;;;;;;8.43;3.05;;;;;;;8.22;100.00;100133.69;5033049;28;20531;-69
2022/11/04 04:54:48;;;;;;;10.32;3.00;;;;;;;8.17;100.00;100134.38;5032982;28;20032;-68
2022/11/04 04:57:13;;;;;;;11.70;3.15;;;;;;;8.14;100.00;100134.81;5031606;28;20112;-66
2022/11/04 04:59:41;;;;;;;8.57;2.70;;;;;;;8.11;100.00;100137.97;5031671;28;20108;-71
2022/11/04 05:02:06;;;;;;;8.65;2.75;;;;;;;8.12;100.00;100143.13;5029331;28;20342;-67
2022/11/04 05:04:32;;;;;;;9.73;3.33;;;;;;;8.10;100.00;100142.53;5033148;28;20028;-71
2022/11/04 05:06:57;;;;;;;9.02;3.58;;;;;;;8.09;100.00;100145.44;5031648;28;20021;-70
2022/11/04 05:09:22;;;;;;;11.35;4.00;;;;;;;8.07;100.00;100144.84;5031475;28;20029;-68
2022/11/04 05:11:47;;;;;;;10.73;4.07;;;;;;;8.10;100.00;100142.53;5032794;28;20023;-69
2022/11/04 05:14:13;;;;;;;13.40;4.60;;;;;;;8.12;100.00;100153.91;5032982;28;20059;-68
2022/11/04 05:16:38;;;;;;;12.20;4.35;;;;;;;8.02;100.00;100155.47;5032741;28;20109;-71
2022/11/04 05:19:03;;;;;;;11.25;4.13;;;;;;;8.05;100.00;100147.78;5032407;28;20031;-70
2022/11/04 05:21:29;;;;;;;9.80;4.38;;;;;;;8.08;100.00;100162.69;5032642;28;20469;-71
2022/11/04 05:23:54;;;;;;;18.55;4.75;;;;;;;8.02;100.00;100169.78;5032392;28;20104;-68
2022/11/04 05:26:20;;;;;;;12.40;4.55;;;;;;;8.05;100.00;100160.44;5031595;28;20033;-68
2022/11/04 05:28:45;;;;;;;11.95;4.80;;;;;;;8.08;100.00;100160.78;5032458;28;20454;-70
2022/11/04 05:31:10;;;;;;;10.50;4.68;;;;;;;8.09;100.00;100173.22;5031452;28;20040;-71
2022/11/04 05:33:36;;;;;;;12.00;5.05;;;;;;;8.14;100.00;100170.69;5031062;28;20104;-69
2022/11/04 05:36:06;;;;;;;13.65;4.70;;;;;;;8.12;100.00;100172.78;5032423;28;20021;-69
2022/11/04 05:38:31;;;;;;;11.75;5.10;;;;;;;8.14;100.00;100183.34;5032395;28;20023;-70
2022/11/04 05:40:57;;;;;;;13.88;5.63;;;;;;;8.16;100.00;100181.22;5031239;28;20017;-69
2022/11/04 05:43:22;;;;;;;14.05;5.10;;;;;;;8.16;100.00;100189.31;5032259;28;20045;-71
2022/11/04 05:45:48;;;;;;;10.90;5.07;;;;;;;8.12;100.00;100175.47;5032639;28;20409;-68
2022/11/04 05:48:13;;;;;;;11.05;4.95;;;;;;;8.12;100.00;100183.56;5030882;28;20334;-71
2022/11/04 05:50:40;;;;;;;13.18;5.60;;;;;;;8.15;100.00;100187.66;5032408;28;20025;-67
2022/11/04 05:53:05;;;;;;;10.88;4.90;;;;;;;8.24;100.00;100180.91;5030562;28;20052;-70
2022/11/04 05:55:31;;;;;;;11.95;5.03;;;;;;;8.18;100.00;100197.97;5032457;28;20052;-67
2022/11/04 05:57:59;;;;;;;13.90;5.32;;;;;;;8.22;100.00;100193.00;5030928;28;20033;-71
2022/11/04 06:00:26;;;;;;;11.07;5.00;;;;;;;8.22;100.00;100199.19;5030515;28;20519;-68
2022/11/04 06:02:51;;;;;;;11.52;4.60;;;;;;;8.22;100.00;100199.19;5031741;28;20067;-69
2022/11/04 06:05:16;;;;;;;10.32;5.13;;;;;;;8.23;100.00;100208.94;5030970;28;20021;-72
2022/11/04 06:07:42;;;;;;;12.70;5.63;;;;;;;8.17;100.00;100207.13;5031011;28;20177;-70
2022/11/04 06:10:07;;;;;;;12.85;5.05;;;;;;;8.17;100.00;100207.13;5031881;28;20025;-69
2022/11/04 06:12:33;;;;;;;11.93;5.28;;;;;;;8.13;100.00;100206.75;5032046;28;20394;-68
2022/11/04 06:15:01;;;;;;;8.75;4.70;;;;;;;8.10;100.00;100203.69;5031758;28;20028;-69
2022/11/04 06:17:26;;;;;;;9.60;4.97;;;;;;;8.06;100.00;100205.19;5032694;28;20025;-70
2022/11/04 06:19:51;;;;;;;7.18;4.53;;;;;;;8.12;100.00;100204.28;5031802;28;20112;-71
2022/11/04 06:22:18;;;;;;;12.55;5.38;;;;;;;8.10;100.00;100209.06;5032268;28;20350;-70
2022/11/04 06:24:44;;;;;;;11.00;4.70;;;;;;;8.06;100.00;100206.03;5032168;28;20025;-70
2022/11/04 06:27:10;;;;;;;11.32;5.38;;;;;;;8.08;100.00;100209.31;5030557;28;20020;-70
2022/11/04 06:29:38;;;;;;;10.95;4.40;;;;;;;8.06;100.00;100215.97;5032162;28;20037;-68
2022/11/04 06:32:10;;;;;;;10.85;4.68;;;;;;;8.00;100.00;100212.28;5031883;28;20076;-69
2022/11/04 06:34:36;;;;;;;8.17;4.00;;;;;;;8.04;100.00;100224.25;5031920;28;20033;-71
2022/11/04 06:37:01;;;;;;;12.98;4.18;;;;;;;7.99;100.00;100224.13;5031482;28;20091;-70
2022/11/04 06:39:27;;;;;;;11.57;4.45;;;;;;;7.99;100.00;100227.63;5030523;28;20017;-69
2022/11/04 06:41:52;;;;;;;14.13;4.32;;;;;;;7.97;100.00;100228.88;5032107;28;20030;-73
2022/11/04 06:44:17;;;;;;;12.88;3.95;;;;;;;7.93;100.00;100227.72;5031988;28;20060;-67
2022/11/04 06:46:43;;;;;;;10.25;4.50;;;;;;;7.87;100.00;100228.59;5031864;28;20030;-69
2022/11/04 06:49:14;;;;;;;11.15;4.72;;;;;;;7.80;100.00;100232.19;5030505;28;20026;-71
2022/11/04 06:51:40;;;;;;;6.90;3.85;;;;;;;7.81;100.00;100230.31;5031660;28;20425;-71
2022/11/04 06:54:06;;;;;;;9.93;4.65;;;;;;;7.84;100.00;100242.53;5031354;28;20053;-69
2022/11/04 06:56:31;;;;;;;9.27;4.72;;;;;;;7.80;100.00;100239.44;5031628;28;20056;-70
2022/11/04 06:58:56;;;;;;;9.82;4.20;;;;;;;7.87;100.00;100244.75;5031367;28;20028;-68
2022/11/04 07:01:25;;;;;;;11.77;5.07;;;;;;;7.88;100.00;100249.94;5030813;28;20029;-73
2022/11/04 07:03:55;;;;;;;12.35;5.22;;;;;;;7.91;100.00;100254.88;5034906;28;20025;-71
2022/11/04 07:06:21;;;;;;;13.38;5.10;;;;;;;7.86;100.00;100260.09;5032192;28;20436;-69
2022/11/04 07:08:47;;;;;;;12.52;4.90;;;;;;;7.83;100.00;100260.53;5036073;28;20052;-71
2022/11/04 07:11:13;;;;;;;14.07;4.90;;;;;;;7.88;100.00;100265.25;5034807;28;20360;-72
2022/11/04 07:13:39;;;;;;;13.63;4.90;;;;;;;7.92;100.00;100264.59;5034838;28;20449;-72
2022/11/04 07:16:06;;;;;;;10.70;5.60;;;;;;;7.96;100.00;100271.19;5034210;28;20024;-70
2022/11/04 07:18:31;;;;;;;12.52;4.75;;;;;;;8.07;100.00;100271.50;5034116;28;20029;-73
2022/11/04 07:20:57;;;;;;;13.10;4.78;;;;;;;8.14;100.00;100274.97;5033964;28;20036;-71
2022/11/04 07:23:23;;;;;;;12.40;5.63;;;;;;;8.17;100.00;100277.22;5035040;28;20143;-69
2022/11/04 07:25:53;;;;;;;10.73;4.95;;;;;;;8.26;100.00;100270.47;5034459;28;20104;-71
2022/11/04 07:28:18;;;;;;;13.02;4.95;;;;;;;8.32;100.00;100274.97;5034242;28;20029;-73
2022/11/04 07:30:54;;;;;;;13.20;5.10;;;;;;;8.38;100.00;100275.94;5034597;28;20040;-79
2022/11/04 07:33:26;;;;;;;12.55;4.72;;;;;;;8.42;100.00;100279.00;5033662;28;20030;-80
2022/11/04 07:35:53;;;;;;;12.40;4.95;;;;;;;8.42;100.00;100279.00;5032866;28;20028;-76
2022/11/04 07:38:21;;;;;;;11.80;4.70;;;;;;;8.47;100.00;100287.28;5034658;28;20453;-71
2022/11/04 07:40:48;;;;;;;15.68;4.78;;;;;;;8.46;100.00;100280.25;5032827;28;20017;-71
2022/11/04 07:43:14;;;;;;;10.38;5.07;;;;;;;8.51;100.00;100291.19;5024008;28;20268;-72
2022/11/04 07:45:39;;;;;;;15.90;4.85;;;;;;;8.55;100.00;100295.06;5014583;28;20097;-74
2022/11/04 07:48:05;;;;;;;13.85;4.90;;;;;;;8.58;100.00;100304.59;5030797;28;20526;-74
2022/11/04 07:50:30;;;;;;;15.75;5.47;;;;;;;8.64;100.00;100298.31;5034252;28;20112;-71
2022/11/04 07:52:56;;;;;;;12.25;4.88;;;;;;;8.66;100.00;100299.69;5032660;28;20037;-72
2022/11/04 07:55:21;;;;;;;12.60;4.65;;;;;;;8.68;100.00;100303.00;5033296;28;20060;-70
2022/11/04 07:57:47;;;;;;;10.35;4.70;;;;;;;8.76;100.00;100307.28;5033959;28;20025;-71
2022/11/04 08:00:15;;;;;;;13.68;5.05;;;;;;;8.78;100.00;100304.34;5034020;28;20083;-74
2022/11/04 08:02:43;;;;;;;11.50;5.07;;;;;;;8.80;100.00;100300.38;5031898;28;20022;-74
2022/11/04 08:05:09;;;;;;;13.55;5.00;;;;;;;8.84;100.00;100298.88;5034075;28;20465;-73
2022/11/04 08:07:34;;;;;;;12.20;5.00;;;;;;;8.85;100.00;100305.09;5033928;28;20057;-72
2022/11/04 08:09:59;;;;;;;14.18;5.22;;;;;;;8.96;100.00;100300.81;5033974;28;20033;-72
2022/11/04 08:12:26;;;;;;;13.05;4.90;;;;;;;8.97;100.00;100303.28;5033336;28;20040;-74
2022/11/04 08:14:52;;;;;;;13.98;4.88;;;;;;;9.01;100.00;100307.19;5033772;28;20025;-74
2022/11/04 08:17:17;;;;;;;10.82;4.80;;;;;;;9.08;100.00;100317.88;5032762;28;20361;-72
2022/11/04 08:19:42;;;;;;;17.80;5.43;;;;;;;9.10;100.00;100317.63;5033973;28;20095;-73
2022/11/04 08:22:08;;;;;;;14.63;4.95;;;;;;;9.15;100.00;100321.31;5033713;28;20116;-72
2022/11/04 08:24:34;;;;;;;14.77;5.20;;;;;;;9.21;100.00;100324.97;5034123;28;20044;-71
2022/11/04 08:26:59;;;;;;;14.35;5.00;;;;;;;9.21;100.00;100319.59;5033415;28;20032;-74
2022/11/04 08:29:24;;;;;;;12.95;4.60;;;;;;;9.28;100.00;100328.38;5033818;28;20038;-73
2022/11/04 08:31:50;;;;;;;11.63;4.93;;;;;;;9.25;100.00;100331.53;5033478;28;20041;-73
2022/11/04 08:34:17;;;;;;;15.15;5.10;;;;;;;9.27;100.00;100344.81;5033115;28;20162;-75
2022/11/04 08:36:43;;;;;;;16.40;5.65;;;;;;;9.27;100.00;100348.38;5033589;28;20056;-72
2022/11/04 08:39:09;;;;;;;14.65;5.10;;;;;;;9.33;100.00;100347.44;5033396;28;20029;-73
2022/11/04 08:41:36;;;;;;;18.20;5.32;;;;;;;9.38;100.00;100352.97;5033825;28;20025;-73
2022/11/04 08:44:03;;;;;;;18.92;5.95;;;;;;;9.41;100.00;100357.09;5033277;28;20057;-72
2022/11/04 08:46:32;;;;;;;17.45;6.43;;;;;;;9.43;100.00;100354.97;5033630;28;20040;-72
2022/11/04 08:48:57;;;;;;;14.57;5.90;;;;;;;9.47;100.00;100352.66;5033269;28;20022;-72
2022/11/04 08:51:25;;;;;;;16.67;6.30;;;;;;;9.51;100.00;100351.13;5033375;28;20021;-71
2022/11/04 08:53:51;;;;;;;14.93;5.85;;;;;;;9.55;100.00;100353.13;5032019;28;20476;-72
2022/11/04 08:56:18;;;;;;;17.10;6.30;;;;;;;9.53;100.00;100357.94;5033120;28;20029;-72
2022/11/04 08:58:44;;;;;;;15.20;5.93;;;;;;;9.52;100.00;100363.59;5033287;28;20053;-73
2022/11/04 09:01:10;;;;;;;14.23;6.03;;;;;;;9.50;100.00;100371.09;5030569;28;20056;-74
2022/11/04 09:03:37;;;;;;;15.32;5.70;;;;;;;9.49;100.00;100369.44;5033152;28;20017;-73
2022/11/04 09:06:08;;;;;;;16.27;5.78;;;;;;;9.49;100.00;100374.84;5032639;28;20025;-72
2022/11/04 09:08:33;;;;;;;11.73;5.37;;;;;;;9.51;100.00;100378.13;5033178;28;20021;-74
2022/11/04 09:11:00;;;;;;;15.02;5.53;;;;;;;9.52;100.00;100379.78;5033086;28;20096;-74
2022/11/04 09:13:26;;;;;;;14.80;5.40;;;;;;;9.53;100.00;100398.47;5031661;28;20453;-72
2022/11/04 09:15:51;;;;;;;19.02;5.93;;;;;;;9.56;100.00;100398.00;5032994;28;20076;-71
2022/11/04 09:18:16;;;;;;;15.73;5.72;;;;;;;9.57;100.00;100394.25;5032795;28;20275;-73
2022/11/04 09:20:42;;;;;;;15.15;5.85;;;;;;;9.54;100.00;100404.69;5033015;28;20025;-74
2022/11/04 09:23:08;;;;;;;17.50;5.53;;;;;;;9.61;100.00;100400.03;5032151;28;20515;-72
2022/11/04 09:25:34;;;;;;;14.43;5.70;;;;;;;9.62;100.00;100400.84;5031339;28;20480;-71
2022/11/04 09:28:00;;;;;;;16.23;5.47;;;;;;;9.61;100.00;100402.72;5032649;28;20104;-71
2022/11/04 09:30:26;;;;;;;18.33;6.15;;;;;;;9.64;100.00;100406.84;5032705;28;20072;-73
2022/11/04 09:32:51;;;;;;;13.45;5.00;;;;;;;9.61;100.00;100412.72;5032732;28;20477;-72
2022/11/04 09:35:17;;;;;;;17.48;5.55;;;;;;;9.64;100.00;100421.16;5031194;28;20124;-75
2022/11/04 09:37:43;;;;;;;14.50;5.20;;;;;;;9.63;100.00;100424.94;5031553;28;20120;-71
2022/11/04 09:40:13;;;;;;;13.00;5.28;;;;;;;9.67;100.00;100433.41;5029535;28;20032;-74
2022/11/04 09:43:07;;;;;;;15.05;5.47;;;;;;;9.72;100.00;100431.66;5016581;28;20026;-73
2022/11/04 09:45:32;;;;;;;15.43;5.75;;;;;;;9.81;100.00;100431.34;5018459;28;20356;-72
2022/11/04 09:48:04;;;;;;;14.95;5.35;;;;;;;9.81;100.00;100439.44;5032265;28;20033;-73
2022/11/04 09:50:40;;;;;;;16.10;5.63;;;;;;;9.85;100.00;100443.34;5028320;28;20128;-73
2022/11/04 09:53:16;;;;;;;15.10;5.93;;;;;;;9.95;100.00;100449.03;5031724;28;20026;-73
2022/11/04 09:56:11;;;;;;;15.30;5.93;;;;;;;9.98;100.00;100437.75;5032130;28;20361;-74
2022/11/04 09:58:37;;;;;;;15.38;5.75;;;;;;;10.00;100.00;100441.03;5032537;28;20108;-74
2022/11/04 10:01:20;;;;;;;15.77;5.40;;;;;;;10.04;100.00;100452.19;5029852;28;20375;-73
2022/11/04 10:04:05;;;;;;;18.35;6.03;;;;;;;10.04;100.00;100447.63;5032176;28;20025;-74
2022/11/04 10:06:40;;;;;;;18.40;5.90;;;;;;;10.06;100.00;100455.50;5032426;28;20029;-72
2022/11/04 10:09:33;;;;;;;14.35;5.22;;;;;;;10.08;100.00;100454.22;5032589;28;20032;-73
2022/11/04 10:13:00;;;;;;;17.67;5.53;;;;;;;10.18;100.00;100460.94;5032019;28;20128;-71
2022/11/04 10:15:56;;;;;;;13.32;5.32;;;;;;;10.23;100.00;100463.78;4990519;28;20058;-73
2022/11/04 10:18:59;;;;;;;17.27;5.40;;;;;;;10.28;100.00;100469.28;4973987;28;20041;-72
2022/11/04 10:21:44;;;;;;;16.60;5.72;;;;;;;10.29;100.00;100471.75;5032316;28;20044;-72
2022/11/04 10:24:28;;;;;;;13.70;5.60;;;;;;;10.28;100.00;100461.19;5032027;28;20033;-74
2022/11/04 10:27:03;;;;;;;15.50;5.78;;;;;;;10.18;100.00;100466.34;5030995;28;20014;-74
2022/11/04 10:29:45;;;;;;;15.40;5.70;;;;;;;10.19;100.00;100470.69;5031946;28;20389;-72
2022/11/04 10:32:31;;;;;;;18.48;6.38;;;;;;;10.18;100.00;100469.88;5031984;28;20025;-73
2022/11/04 10:35:09;;;;;;;13.00;6.30;;;;;;;10.20;100.00;100477.75;5032833;28;20426;-71
2022/11/04 10:37:34;;;;;;;15.80;6.25;;;;;;;10.25;100.00;100475.16;5035890;28;20049;-71
2022/11/04 10:40:16;;;;;;;23.00;7.32;;;;;;;10.26;100.00;100484.94;5035692;28;20500;-73
2022/11/04 10:42:41;;;;;;;16.88;7.35;;;;;;;10.26;100.00;100482.22;5036005;28;20055;-72
2022/11/04 10:45:11;;;;;;;17.27;7.07;;;;;;;10.23;100.00;100498.91;5035320;28;20469;-71
2022/11/04 10:47:39;;;;;;;19.77;7.88;;;;;;;10.28;100.00;100512.56;5034214;28;20025;-72
2022/11/04 10:50:10;;;;;;;23.85;8.90;;;;;;;10.37;100.00;100504.97;5035180;28;20026;-73
2022/11/04 10:52:36;;;;;;;17.30;8.52;;;;;;;10.41;100.00;100509.69;5035433;28;20100;-75
2022/11/04 10:55:10;;;;;;;20.63;8.38;;;;;;;10.48;100.00;100512.31;5035345;28;20104;-73
2022/11/04 10:57:36;;;;;;;15.38;8.70;;;;;;;10.49;100.00;100513.13;5035865;28;20033;-72
2022/11/04 11:00:04;;;;;;;17.77;8.40;;;;;;;10.55;100.00;100512.19;5035528;28;20128;-73
2022/11/04 11:02:35;;;;;;;21.42;9.15;;;;;;;10.66;100.00;100511.38;5031682;28;20116;-73
2022/11/04 11:05:23;;;;;;;18.77;8.40;;;;;;;10.76;100.00;100499.97;5035132;28;20034;-73
2022/11/04 11:07:58;;;;;;;18.90;8.07;;;;;;;10.71;100.00;100506.09;5035472;28;20024;-72
2022/11/04 11:10:31;;;;;;;21.15;8.77;;;;;;;10.78;100.00;100495.97;5034808;28;20381;-72
2022/11/04 11:13:01;;;;;;;19.88;9.18;;;;;;;10.88;100.00;100494.56;5033945;28;20472;-71
2022/11/04 11:15:36;;;;;;;16.02;7.55;;;;;;;10.91;100.00;100502.22;5035468;28;20060;-74
2022/11/04 11:18:05;;;;;;;19.92;8.38;;;;;;;10.87;100.00;100509.16;5035076;28;20029;-72
2022/11/04 11:20:32;;;;;;;24.25;9.00;;;;;;;10.89;100.00;100505.16;5033905;28;20022;-72
2022/11/04 11:22:58;;;;;;;18.35;8.88;;;;;;;10.88;100.00;100506.19;5035152;28;20484;-73
2022/11/04 11:25:29;;;;;;;20.88;8.63;;;;;;;10.92;100.00;100512.00;5034889;28;20025;-74
2022/11/04 11:28:05;;;;;;;;;;;;;;;11.02;100.00;100517.66;5035719;28;20061;-71
2022/11/04 11:30:33;;;;;;;19.30;9.35;;;;;;;11.01;100.00;100507.06;5035078;28;19917;-71
2022/11/04 11:33:02;;;;;;;17.27;9.43;;;;;;;11.07;100.00;100509.63;5034873;28;20369;-75
2022/11/04 11:35:43;;;;;;;16.88;8.50;;;;;;;11.10;100.00;100513.75;5033474;28;20119;-73
2022/11/04 11:38:21;;;;;;;16.37;8.23;;;;;;;11.12;100.00;100511.63;5033546;28;20091;-70
2022/11/04 11:40:49;;;;;;;18.17;7.22;;;;;;;11.07;100.00;100519.63;5034696;28;20275;-73
2022/11/04 11:43:37;;;;;;;16.83;7.15;;;;;;;11.07;100.00;100515.03;5033089;28;20018;-70
2022/11/04 11:46:03;;;;;;;18.45;7.43;;;;;;;11.08;100.00;100510.44;5034015;28;20483;-71
2022/11/04 11:48:38;;;;;;;17.05;7.70;;;;;;;11.07;100.00;100501.50;5034349;28;20021;-70
2022/11/04 11:51:05;;;;;;;17.50;7.95;;;;;;;11.06;100.00;100502.56;5033179;28;20119;-71
2022/11/04 11:53:33;;;;;;;22.10;8.35;;;;;;;11.09;100.00;100510.19;5034239;28;20021;-73
2022/11/04 11:56:22;;;;;;;15.40;8.25;;;;;;;11.15;100.00;100511.16;5027601;28;20114;-73
2022/11/04 11:59:14;;;;;;;16.20;8.15;;;;;;;11.11;100.00;100515.38;5014632;28;20057;-71
2022/11/04 12:01:49;;;;;;;17.98;8.25;;;;;;;11.09;100.00;100514.81;5011697;28;20458;-70